Change the Weather History Date:

Friday, April 19, 2013

  Actual Average Record
Temperature  
Mean Temperature 62 °F -  
Max Temperature 77 °F 74 °F 82 °F (2002)
Min Temperature 48 °F 58 °F 42 °F (2001)
Degree Days  
Heating Degree Days 2    
Growing Degree Days 12 (Base 50)    
Moisture  
Dew Point 66 °F    
Average Humidity 99    
Maximum Humidity 100    
Minimum Humidity 78    
Precipitation  
Precipitation 0.73 in - - ()
Sea Level Pressure  
Sea Level Pressure 29.96 in    
Wind  
Wind Speed 13 mph (SSW)    
Max Wind Speed 22 mph    
Max Gust Speed 29 mph    
Visibility 9 miles    
Events Rain    
Averages and records for this station are not official NWS values.
T = Trace of Precipitation, MM = Missing Value Source: NWS Daily Summary

Daily Weather History Graph

Daily Weather History Graph

Search for Another Location

Airport or City:

Trip Planner

Search our weather history database for the weather conditions in past years. The results will help you decide how hot, cold, wet, or windy it might be!

Date:

Astronomy

Apr. 19, 2013 Rise Set
Actual Time 6:10 AM CDT 7:12 PM CDT
Civil Twilight 5:46 AM CDT 7:37 PM CDT
Nautical Twilight 5:16 AM CDT 8:06 PM CDT
Astronomical Twilight 4:46 AM CDT 8:36 PM CDT
Moon 1:22 PM CDT (4/19) 1:58 AM CDT (4/19)
Length of Visible Light 13h 51m
Length of Day
13h 01m
First Quarter, 62% of the Moon is Illuminated
Apr 19
First Quarter
Apr 25
Full
May 2
Last Quarter
May 9
New
May 17
First Quarter

Hourly Weather History & Observations

Time (CDT) Temp. Dew Point Humidity Pressure Visibility Wind Dir Wind Speed Gust Speed Precip Events Conditions
12:48 AM 71.6 °F 71.6 °F 100% 29.92 in 10.0 mi SSE 13.8 mph - N/A   Mostly Cloudy
12:53 AM 71.6 °F 71.6 °F 100% 29.92 in 10.0 mi SSE 12.7 mph - N/A   Mostly Cloudy
12:58 AM 72.1 °F 72.1 °F 100% 29.92 in 10.0 mi SSE 13.8 mph - N/A   Mostly Cloudy
1:24 AM 71.6 °F 71.6 °F 100% 29.91 in 10.0 mi South 11.5 mph - N/A   Mostly Cloudy
1:39 AM 71.6 °F 71.6 °F 100% 29.90 in 10.0 mi SSE 12.7 mph - N/A   Overcast
1:54 AM 71.6 °F 71.6 °F 100% 29.90 in 10.0 mi SSE 12.7 mph - N/A   Overcast
1:58 AM 71.6 °F 71.6 °F 100% 29.91 in 10.0 mi SSE 12.7 mph - N/A   Overcast
2:13 AM 71.6 °F 71.6 °F 100% 29.90 in 10.0 mi SSE 11.5 mph - N/A   Overcast
2:23 AM 71.6 °F 71.6 °F 100% 29.89 in 10.0 mi SSE 9.2 mph - N/A   Overcast
2:33 AM 71.6 °F 71.6 °F 100% 29.89 in 10.0 mi SSE 12.7 mph - N/A   Overcast
2:48 AM 71.6 °F 71.6 °F 100% 29.89 in 10.0 mi SSE 16.1 mph - N/A   Overcast
2:58 AM 72.0 °F 72.0 °F 100% 29.88 in 10.0 mi SSE 16.1 mph - N/A   Overcast
3:18 AM 71.6 °F 71.6 °F 100% 29.87 in 10.0 mi SSE 15.0 mph - N/A   Overcast
3:28 AM 71.6 °F 71.6 °F 100% 29.87 in 10.0 mi SSE 15.0 mph - N/A   Overcast
3:33 AM 71.6 °F 71.6 °F 100% 29.87 in 10.0 mi SSE 13.8 mph - N/A   Overcast
3:58 AM 71.8 °F 71.8 °F 100% 29.88 in 10.0 mi SSE 15.0 mph - N/A   Overcast
4:13 AM 71.6 °F 71.6 °F 100% 29.88 in 10.0 mi SSE 13.8 mph - N/A   Overcast
4:28 AM 73.4 °F 73.4 °F 100% 29.88 in 10.0 mi South 12.7 mph - N/A   Overcast
4:53 AM 73.4 °F 73.4 °F 100% 29.89 in 10.0 mi South 10.4 mph - N/A   Overcast
4:58 AM 72.5 °F 72.5 °F 100% 29.90 in 10.0 mi SSE 11.5 mph - N/A   Overcast
5:43 AM 73.4 °F 73.4 °F 100% 29.90 in 10.0 mi South 10.4 mph - N/A   Overcast
5:58 AM 72.5 °F 72.5 °F 100% 29.91 in 10.0 mi South 9.2 mph - N/A   Overcast
6:23 AM 71.6 °F 71.6 °F 100% 29.90 in 10.0 mi South 10.4 mph - N/A   Mostly Cloudy
6:33 AM 73.4 °F 73.4 °F 100% 29.90 in 10.0 mi South 12.7 mph - N/A   Scattered Clouds
6:58 AM 73.4 °F 73.4 °F 100% 29.92 in 10.0 mi South 11.5 mph - N/A   Mostly Cloudy
7:03 AM 73.4 °F 73.4 °F 100% 29.91 in 10.0 mi South 12.7 mph - N/A   Scattered Clouds
7:58 AM 74.7 °F 74.7 °F 100% 29.93 in 10.0 mi SSE 16.1 mph 21.9 mph N/A   Scattered Clouds
8:29 AM 77.0 °F 77.0 °F 100% 29.93 in 10.0 mi South 12.7 mph 19.6 mph N/A   Mostly Cloudy
8:58 AM 75.4 °F 75.4 °F 100% 29.95 in 10.0 mi South 13.8 mph - N/A   Mostly Cloudy
9:08 AM 75.2 °F 75.2 °F 100% 29.94 in 10.0 mi South 10.4 mph - N/A   Mostly Cloudy
9:23 AM 75.2 °F 75.2 °F 100% 29.93 in 10.0 mi South 13.8 mph - N/A   Mostly Cloudy
9:43 AM 77.0 °F 77.0 °F 100% 29.93 in 6.0 mi South 13.8 mph - N/A Rain Light Rain Showers
9:58 AM 75.2 °F 75.2 °F 100% 29.94 in 10.0 mi South 15.0 mph 21.9 mph N/A   Mostly Cloudy
10:08 AM 77.0 °F 77.0 °F 100% 29.93 in 10.0 mi South 16.1 mph - N/A   Partly Cloudy
10:24 AM 77.0 °F 77.0 °F 100% 29.93 in 10.0 mi South 16.1 mph 21.9 mph N/A   Mostly Cloudy
10:43 AM 77.0 °F 77.0 °F 100% 29.93 in 10.0 mi South 12.7 mph 25.3 mph N/A Rain Light Rain Showers
10:58 AM 75.7 °F 75.7 °F 100% 29.94 in 1.0 mi South 12.7 mph - 0.00 in Rain Rain Showers
11:03 AM 75.2 °F 75.2 °F 100% 29.93 in 2.0 mi South 21.9 mph 28.8 mph N/A Rain Rain Showers
11:04 AM 75.2 °F 75.2 °F 100% 29.93 in 4.0 mi SW 15.0 mph 28.8 mph N/A Rain Light Rain Showers
11:22 AM 75.2 °F 75.2 °F 100% 29.92 in 10.0 mi South 15.0 mph - N/A   Mostly Cloudy
11:32 AM 77.0 °F 77.0 °F 100% 29.92 in 10.0 mi South 16.1 mph - N/A   Mostly Cloudy
11:35 AM 77.0 °F 77.0 °F 100% 29.91 in 10.0 mi South 16.1 mph - N/A   Mostly Cloudy
11:58 AM 77.0 °F 77.0 °F 100% 29.92 in 10.0 mi South 15.0 mph 23.0 mph 0.12 in   Mostly Cloudy
12:03 PM 75.2 °F 75.2 °F 100% 29.90 in 10.0 mi South 16.1 mph 24.2 mph N/A   Scattered Clouds
12:11 PM 75.2 °F 75.2 °F 100% 29.89 in 6.0 mi SSW 12.7 mph 24.2 mph N/A Rain Light Rain Showers
12:20 PM 73.4 °F 73.4 °F 100% 29.90 in 3.0 mi WNW 12.7 mph - N/A Rain Rain Showers
12:23 PM 75.2 °F 75.2 °F 100% 29.88 in 1.0 mi SW 11.5 mph - N/A Rain Heavy Rain Showers
12:25 PM 73.4 °F 73.4 °F 100% 29.91 in 5.0 mi West 10.4 mph - N/A Rain Light Rain Showers
12:30 PM 71.6 °F 71.6 °F 100% 29.90 in 3.0 mi WNW 10.4 mph - N/A Rain Heavy Rain
12:35 PM 71.6 °F 71.6 °F 100% 29.91 in 7.0 mi WNW 15.0 mph - N/A Rain Light Rain Showers
12:50 PM 69.8 °F 69.8 °F 100% 29.92 in 10.0 mi NW 17.3 mph - N/A Rain Rain
12:58 PM 68.9 °F 68.9 °F 100% 29.93 in 10.0 mi NW 15.0 mph - 0.30 in Rain Light Rain
1:01 PM 69.8 °F 69.8 °F 100% 29.92 in 10.0 mi NNW 17.3 mph - N/A   Mostly Cloudy
1:43 PM 69.8 °F 69.8 °F 100% 29.94 in - North - - N/A   Mostly Cloudy
1:48 PM 69.8 °F 69.8 °F 100% 29.93 in - North - - N/A   Scattered Clouds
1:58 PM 70.2 °F 70.2 °F 100% 29.95 in 10.0 mi NNW 15.0 mph 19.6 mph 0.00 in   Mostly Cloudy
2:03 PM 69.8 °F 69.8 °F 100% 29.94 in 10.0 mi NNW 15.0 mph 20.7 mph N/A   Mostly Cloudy
2:08 PM 69.8 °F 69.8 °F 100% 29.94 in 10.0 mi NNW 12.7 mph 20.7 mph N/A   Mostly Cloudy
2:53 PM 69.8 °F 66.2 °F 88% 29.94 in 10.0 mi NNW 13.8 mph 20.7 mph N/A   Mostly Cloudy
2:58 PM 69.3 °F 67.5 °F 94% 29.96 in 10.0 mi North 12.7 mph - N/A   Mostly Cloudy
3:08 PM 68.0 °F 66.2 °F 94% 29.95 in 10.0 mi NNW 18.4 mph 23.0 mph N/A   Mostly Cloudy
3:13 PM 66.2 °F 64.4 °F 94% 29.95 in 10.0 mi NNW 16.1 mph 23.0 mph N/A   Mostly Cloudy
3:58 PM 62.6 °F 57.7 °F 84% 29.97 in 10.0 mi North 10.4 mph 19.6 mph N/A   Mostly Cloudy
4:03 PM 62.6 °F 57.2 °F 82% 29.96 in 10.0 mi North 9.2 mph - N/A   Mostly Cloudy
4:33 PM 60.8 °F 59.0 °F 94% 29.95 in 10.0 mi NE 9.2 mph - N/A   Mostly Cloudy
4:58 PM 60.4 °F 53.4 °F 78% 29.99 in 10.0 mi North 11.5 mph - N/A   Overcast
5:58 PM 57.7 °F 53.2 °F 85% 30.02 in 10.0 mi North 9.2 mph - 0.00 in   Overcast
6:58 PM 56.7 °F 53.1 °F 88% 30.02 in 10.0 mi North 9.2 mph - 0.00 in Rain Light Rain
7:58 PM 55.2 °F 54.0 °F 96% 30.05 in 10.0 mi North 6.9 mph - 0.00 in Rain Light Rain
8:42 PM 53.6 °F 53.6 °F 100% 30.08 in 10.0 mi North 6.9 mph - N/A Rain Light Rain
8:47 PM 53.6 °F 53.6 °F 100% 30.08 in 7.0 mi North 5.8 mph - N/A Rain Heavy Rain
8:52 PM 53.6 °F 53.6 °F 100% 30.07 in 7.0 mi North 6.9 mph - N/A Rain Rain
8:57 PM 53.6 °F 53.6 °F 100% 30.07 in 9.0 mi North 6.9 mph - N/A Rain Light Rain
8:58 PM 53.6 °F 53.6 °F 100% 30.08 in 9.0 mi North 8.1 mph - 0.05 in Rain Light Rain
9:03 PM 53.6 °F 53.6 °F 100% 30.07 in 8.0 mi North 11.5 mph - N/A Rain Rain
9:08 PM 53.6 °F 53.6 °F 100% 30.09 in 8.0 mi North 12.7 mph 18.4 mph N/A Rain Heavy Rain
9:13 PM 53.6 °F 53.6 °F 100% 30.08 in 9.0 mi NNW 12.7 mph 18.4 mph N/A Rain Rain
9:18 PM 53.6 °F 53.6 °F 100% 30.08 in 10.0 mi NNW 12.7 mph 20.7 mph N/A Rain Light Rain
9:43 PM 50.0 °F 50.0 °F 100% 30.10 in 10.0 mi NNW 15.0 mph 25.3 mph N/A Rain Light Rain
9:58 PM 48.4 °F 48.0 °F 99% 30.12 in 10.0 mi North 6.9 mph 19.6 mph 0.07 in Rain Light Rain
10:08 PM 48.2 °F 48.2 °F 100% 30.12 in 8.0 mi North 8.1 mph - N/A Rain Rain
10:33 PM 48.2 °F 48.2 °F 100% 30.14 in 6.0 mi NNW 5.8 mph - N/A Rain Heavy Rain
10:48 PM 48.2 °F 48.2 °F 100% 30.10 in 8.0 mi North 8.1 mph - N/A Rain Rain
10:53 PM 48.2 °F 48.2 °F 100% 30.11 in 10.0 mi NNE 8.1 mph - N/A Rain Rain
10:58 PM 48.6 °F 48.6 °F 100% 30.12 in 10.0 mi North 5.8 mph - 0.11 in Rain Light Rain
11:23 PM 48.2 °F 48.2 °F 100% 30.12 in 9.0 mi North 6.9 mph - N/A Rain Rain
11:28 PM 48.2 °F 48.2 °F 100% 30.12 in 9.0 mi North 5.8 mph - N/A Rain Light Rain
11:38 PM 48.2 °F 48.2 °F 100% 30.13 in 8.0 mi North 5.8 mph - N/A Rain Rain
11:58 PM 49.1 °F 49.1 °F 100% 30.14 in 9.0 mi North 6.9 mph - 0.08 in Rain Rain